Time;durP1;ratioP1;P1;durP2;ratioP2;P2;SDS_P1;SDS_P2;PMS_P1;PMS_P2;Temp;Humidity;BMP_temperature;BMP_pressure;BME280_temperature;BME280_humidity;BME280_pressure;Samples;Min_cycle;Max_cycle;Signal;HPM_P1;HPM_P2
2024/04/05 00:01:32;;;;;;;8.10;3.30;;;9.30;69.30;;;;;;5055180;28;20372;-77
2024/04/05 00:03:58;;;;;;;3.57;3.13;;;9.30;63.70;;;;;;5055405;28;20172;-76
2024/04/05 00:06:24;;;;;;;3.73;3.33;;;9.30;66.00;;;;;;5053963;28;20383;-76
2024/04/05 00:08:50;;;;;;;4.60;3.40;;;9.30;67.20;;;;;;5054250;28;20427;-77
2024/04/05 00:11:16;;;;;;;6.23;3.80;;;9.20;67.00;;;;;;5055151;28;20885;-78
2024/04/05 00:13:41;;;;;;;6.43;3.10;;;9.20;67.90;;;;;;5055099;28;20172;-78
2024/04/05 00:16:08;;;;;;;3.87;3.57;;;9.20;74.00;;;;;;5055061;28;20369;-78
2024/04/05 00:18:36;;;;;;;4.63;3.20;;;9.30;80.60;;;;;;5054196;28;20175;-76
2024/04/05 00:21:06;;;;;;;3.60;3.30;;;9.20;73.40;;;;;;5054836;28;20389;-76
2024/04/05 00:23:34;;;;;;;7.23;4.23;;;9.30;68.80;;;;;;5054791;28;20392;-77
2024/04/05 00:26:04;;;;;;;6.63;3.40;;;9.30;69.60;;;;;;5054848;28;20397;-76
2024/04/05 00:28:31;;;;;;;4.00;3.70;;;9.30;62.20;;;;;;5053909;28;20425;-77
2024/04/05 00:30:56;;;;;;;5.83;4.20;;;9.20;51.90;;;;;;5054626;28;20859;-76
2024/04/05 00:33:22;;;;;;;6.37;3.80;;;9.20;51.10;;;;;;5053315;28;20413;-77
2024/04/05 00:35:52;;;;;;;5.10;3.60;;;9.30;55.00;;;;;;5054550;28;20679;-76
2024/04/05 00:38:18;;;;;;;4.93;3.43;;;9.30;49.40;;;;;;5054039;28;20395;-76
2024/04/05 00:40:45;;;;;;;4.20;3.83;;;9.30;48.30;;;;;;5054453;28;20427;-76
2024/04/05 00:43:11;;;;;;;3.47;3.07;;;9.20;54.00;;;;;;5054589;28;20410;-75
2024/04/05 00:45:38;;;;;;;4.60;3.87;;;9.20;53.10;;;;;;5054383;28;20460;-77
2024/04/05 00:48:04;;;;;;;4.67;3.93;;;9.20;52.10;;;;;;5052294;28;20464;-76
2024/04/05 00:50:30;;;;;;;6.63;4.00;;;9.20;55.60;;;;;;5053225;28;20438;-77
2024/04/05 00:53:01;;;;;;;6.17;4.33;;;9.20;63.60;;;;;;5054408;28;20422;-77
2024/04/05 00:55:29;;;;;;;6.70;4.43;;;9.20;66.00;;;;;;5054452;28;20849;-77
2024/04/05 00:57:58;;;;;;;4.10;3.80;;;9.20;70.90;;;;;;5052506;28;20389;-75
2024/04/05 01:00:24;;;;;;;9.20;4.60;;;9.20;71.40;;;;;;5053115;28;20416;-76
2024/04/05 01:02:50;;;;;;;8.57;3.90;;;9.20;73.70;;;;;;5054178;28;20402;-77
2024/04/05 01:05:16;;;;;;;4.37;3.60;;;9.30;74.40;;;;;;5054264;28;20740;-76
2024/04/05 01:07:43;;;;;;;7.80;3.70;;;9.30;72.60;;;;;;5053830;28;20369;-77
2024/04/05 01:10:08;;;;;;;3.87;3.57;;;9.20;73.40;;;;;;5051917;28;20436;-78
2024/04/05 01:12:35;;;;;;;5.80;4.07;;;9.20;74.70;;;;;;5053986;28;20417;-77
2024/04/05 01:15:01;;;;;;;4.03;3.73;;;9.20;80.50;;;;;;5053922;28;20251;-77
2024/04/05 01:17:27;;;;;;;4.47;3.90;;;9.30;80.60;;;;;;5053936;28;20384;-77
2024/04/05 01:19:54;;;;;;;6.43;3.90;;;9.30;80.60;;;;;;5052768;28;20426;-77
2024/04/05 01:22:31;;;;;;;5.27;4.77;;;9.30;80.60;;;;;;5053844;28;20173;-77
2024/04/05 01:24:57;;;;;;;7.30;3.77;;;9.30;80.70;;;;;;5053849;28;20387;-78
2024/04/05 01:27:23;;;;;;;8.07;4.87;;;9.30;80.60;;;;;;5053638;28;20376;-77
2024/04/05 01:29:49;;;;;;;4.80;4.27;;;9.30;80.70;;;;;;5052536;28;20828;-77
2024/04/05 01:32:15;;;;;;;5.27;3.90;;;9.30;80.70;;;;;;5053559;28;20173;-76
2024/04/05 01:34:40;;;;;;;5.20;3.63;;;9.20;80.60;;;;;;5053735;28;20527;-76
2024/04/05 01:37:06;;;;;;;4.37;3.60;;;9.20;89.00;;;;;;5053627;28;20657;-76
2024/04/05 01:39:33;;;;;;;6.30;3.80;;;9.20;90.80;;;;;;5052615;28;20736;-76
2024/04/05 01:41:59;;;;;;;5.40;4.17;;;9.20;92.40;;;;;;5052086;28;20179;-76
2024/04/05 01:44:25;;;;;;;4.80;4.40;;;9.20;92.80;;;;;;5053369;28;20392;-77
2024/04/05 01:46:50;;;;;;;4.30;3.90;;;9.30;93.80;;;;;;5052438;28;20266;-77
2024/04/05 01:49:16;;;;;;;5.03;4.67;;;9.20;94.80;;;;;;5052446;28;20199;-76
2024/04/05 01:51:42;;;;;;;8.57;4.90;;;9.30;97.80;;;;;;5053380;28;20639;-78
2024/04/05 01:54:07;;;;;;;14.07;5.20;;;9.30;99.90;;;;;;5053441;28;20695;-77
2024/04/05 01:56:33;;;;;;;20.03;5.90;;;9.30;99.90;;;;;;5053405;28;20656;-76
2024/04/05 01:58:59;;;;;;;7.83;5.07;;;9.30;99.90;;;;;;5052372;28;20172;-77
2024/04/05 02:01:24;;;;;;;5.47;5.07;;;9.30;99.90;;;;;;5052991;28;20171;-77
2024/04/05 02:03:51;;;;;;;9.20;5.20;;;9.30;99.90;;;;;;5053137;28;20182;-77
2024/04/05 02:06:17;;;;;;;15.23;5.80;;;9.30;99.90;;;;;;5053333;28;20190;-77
2024/04/05 02:08:43;;;;;;;6.50;5.00;;;9.30;99.90;;;;;;5052113;28;20959;-76
2024/04/05 02:11:09;;;;;;;10.23;5.53;;;9.30;99.90;;;;;;5053262;28;20403;-77
2024/04/05 02:13:51;;;;;;;9.27;6.97;;;9.40;99.90;;;;;;5053244;28;20381;-77
2024/04/05 02:16:17;;;;;;;5.30;4.90;;;9.40;99.90;;;;;;5053040;28;20164;-76
2024/04/05 02:18:43;;;;;;;6.57;5.97;;;9.40;99.90;;;;;;5052147;28;20376;-76
2024/04/05 02:21:08;;;;;;;8.00;5.87;;;9.40;99.90;;;;;;5053198;28;20245;-76
2024/04/05 02:23:34;;;;;;;13.10;5.90;;;9.50;99.90;;;;;;5053030;28;20285;-76
2024/04/05 02:26:01;;;;;;;8.67;6.23;;;9.50;99.90;;;;;;5053128;28;20160;-77
2024/04/05 02:28:26;;;;;;;9.13;5.93;;;9.40;99.90;;;;;;5051983;28;20222;-76
2024/04/05 02:30:52;;;;;;;9.93;5.70;;;9.40;99.90;;;;;;5052816;28;20465;-76
2024/04/05 02:33:18;;;;;;;7.87;5.30;;;9.40;99.90;;;;;;5053189;28;20181;-76
2024/04/05 02:35:43;;;;;;;11.77;5.87;;;9.40;99.90;;;;;;5052935;28;20209;-77
2024/04/05 02:38:09;;;;;;;10.83;6.60;;;9.40;99.90;;;;;;5051989;28;20179;-77
2024/04/05 02:40:35;;;;;;;9.60;5.40;;;9.50;99.90;;;;;;5052719;28;20600;-77
2024/04/05 02:43:02;;;;;;;7.03;5.90;;;9.40;99.90;;;;;;5052813;28;20372;-76
2024/04/05 02:45:27;;;;;;;10.87;6.57;;;9.30;99.90;;;;;;5053017;28;20528;-76
2024/04/05 02:47:56;;;;;;;6.83;5.47;;;9.30;99.90;;;;;;5052121;28;20397;-77
2024/04/05 02:50:21;;;;;;;8.50;6.27;;;9.30;99.90;;;;;;5052790;28;20297;-77
2024/04/05 02:52:47;;;;;;;11.27;6.33;;;9.40;99.90;;;;;;5052665;28;20511;-77
2024/04/05 02:55:13;;;;;;;6.40;5.67;;;9.40;99.90;;;;;;5052801;28;20228;-76
2024/04/05 02:57:39;;;;;;;9.10;5.80;;;9.40;99.90;;;;;;5051822;28;20630;-76
2024/04/05 03:00:05;;;;;;;11.40;6.43;;;9.50;99.90;;;;;;5050633;28;20196;-77
2024/04/05 03:02:31;;;;;;;10.13;6.33;;;9.50;99.90;;;;;;5052865;28;20171;-77
2024/04/05 03:04:56;;;;;;;8.27;6.50;;;9.50;99.90;;;;;;5052689;28;20431;-76
2024/04/05 03:07:22;;;;;;;9.70;5.60;;;9.50;99.90;;;;;;5052757;28;20175;-77
2024/04/05 03:09:48;;;;;;;11.53;7.33;;;9.60;99.90;;;;;;5051592;28;20278;-78
2024/04/05 03:12:13;;;;;;;10.13;6.67;;;9.60;99.90;;;;;;5051697;28;20204;-76
2024/04/05 03:14:39;;;;;;;10.93;8.27;;;9.70;99.90;;;;;;5053302;28;20661;-77
2024/04/05 03:17:05;;;;;;;18.50;8.53;;;9.70;99.90;;;;;;5056156;28;20170;-76
2024/04/05 03:19:30;;;;;;;10.70;7.90;;;9.70;99.90;;;;;;5055626;28;20194;-77
2024/04/05 03:21:56;;;;;;;18.17;8.73;;;9.80;99.90;;;;;;5055101;28;20550;-76
2024/04/05 03:24:22;;;;;;;11.77;9.03;;;9.80;99.90;;;;;;5056046;28;20218;-77
2024/04/05 03:26:47;;;;;;;19.37;9.63;;;9.80;99.90;;;;;;5055964;28;20634;-76
2024/04/05 03:29:15;;;;;;;14.77;10.63;;;9.80;99.90;;;;;;5053619;28;20557;-77
2024/04/05 03:31:40;;;;;;;13.67;10.43;;;9.80;99.90;;;;;;5055847;28;20502;-77
2024/04/05 03:34:06;;;;;;;13.43;10.30;;;9.80;99.90;;;;;;5055818;28;20808;-77
2024/04/05 03:36:33;;;;;;;16.10;9.40;;;9.80;99.90;;;;;;5055755;28;20164;-77
2024/04/05 03:39:01;;;;;;;15.27;10.70;;;9.90;99.90;;;;;;5054674;28;20177;-76
2024/04/05 03:41:28;;;;;;;19.00;10.17;;;9.90;99.90;;;;;;5054411;28;20482;-78
2024/04/05 03:43:54;;;;;;;15.53;9.60;;;9.90;99.90;;;;;;5055566;28;20391;-76
2024/04/05 03:46:19;;;;;;;14.90;10.03;;;9.90;99.90;;;;;;5054347;28;20760;-76
2024/04/05 03:48:46;;;;;;;19.67;9.20;;;9.90;99.90;;;;;;5054503;28;20190;-77
2024/04/05 03:51:11;;;;;;;14.53;9.60;;;9.90;99.90;;;;;;5055344;28;20218;-76
2024/04/05 03:53:37;;;;;;;20.33;10.20;;;10.00;99.90;;;;;;5055795;28;20410;-77
2024/04/05 03:56:03;;;;;;;12.43;8.60;;;10.00;99.90;;;;;;5055548;28;20528;-77
2024/04/05 03:58:30;;;;;;;15.73;10.37;;;10.00;99.90;;;;;;5054701;28;20177;-78
2024/04/05 04:00:56;;;;;;;20.90;10.90;;;10.00;99.90;;;;;;5055339;28;20427;-76
2024/04/05 04:03:23;;;;;;;14.60;9.13;;;10.00;99.90;;;;;;5055282;28;20415;-77
2024/04/05 04:05:49;;;;;;;17.80;10.03;;;10.00;99.90;;;;;;5055380;28;20454;-77
2024/04/05 04:08:15;;;;;;;19.43;12.07;;;10.00;99.90;;;;;;5054335;28;20446;-76
2024/04/05 04:10:42;;;;;;;19.53;11.83;;;10.00;99.90;;;;;;5055111;28;20924;-77
2024/04/05 04:13:08;;;;;;;14.97;10.97;;;10.10;99.90;;;;;;5055124;28;20495;-76
2024/04/05 04:15:34;;;;;;;16.63;9.70;;;10.10;99.90;;;;;;5055069;28;20420;-75
2024/04/05 04:18:01;;;;;;;17.73;10.30;;;10.10;99.90;;;;;;5054121;28;20405;-75
2024/04/05 04:20:26;;;;;;;17.80;10.53;;;10.10;99.90;;;;;;5055013;28;20256;-77
2024/04/05 04:22:52;;;;;;;14.40;10.43;;;10.00;99.90;;;;;;5055038;28;20473;-75
2024/04/05 04:25:18;;;;;;;23.23;10.30;;;10.00;99.90;;;;;;5054547;28;20258;-75
2024/04/05 04:27:43;;;;;;;20.87;11.10;;;10.10;99.90;;;;;;5054659;28;20178;-77
2024/04/05 04:30:09;;;;;;;25.30;10.53;;;10.10;99.90;;;;;;5053734;28;20202;-75
2024/04/05 04:32:35;;;;;;;18.80;10.80;;;10.20;99.90;;;;;;5053510;28;20171;-77
2024/04/05 04:35:03;;;;;;;15.17;9.13;;;10.20;99.90;;;;;;5054649;28;20369;-77
2024/04/05 04:37:29;;;;;;;19.67;9.60;;;10.20;99.90;;;;;;5054564;28;20771;-77
2024/04/05 04:39:55;;;;;;;27.27;10.27;;;10.20;99.90;;;;;;5053571;28;20411;-77
2024/04/05 04:42:21;;;;;;;23.47;9.30;;;10.20;99.90;;;;;;5054616;28;21092;-75
2024/04/05 04:44:47;;;;;;;27.50;9.73;;;10.30;99.90;;;;;;5054647;28;20201;-75
2024/04/05 04:47:12;;;;;;;23.73;9.80;;;10.30;99.90;;;;;;5054456;28;20166;-77
2024/04/05 04:49:38;;;;;;;22.67;9.30;;;10.30;99.90;;;;;;5053187;28;20465;-75
2024/04/05 04:52:05;;;;;;;23.63;8.43;;;10.30;99.90;;;;;;5054320;28;20163;-77
2024/04/05 04:54:31;;;;;;;23.53;8.17;;;10.40;99.90;;;;;;5054483;28;20403;-75
2024/04/05 04:56:56;;;;;;;22.27;8.90;;;10.40;99.90;;;;;;5054446;28;20708;-77
2024/04/05 04:59:28;;;;;;;20.60;8.83;;;10.40;99.90;;;;;;5053309;28;20432;-77
2024/04/05 05:01:59;;;;;;;24.77;9.03;;;10.40;99.90;;;;;;5054173;28;20593;-72
2024/04/05 05:04:25;;;;;;;21.03;7.93;;;10.40;99.90;;;;;;5054069;28;20487;-77
2024/04/05 05:06:52;;;;;;;25.10;8.03;;;10.50;99.90;;;;;;5054187;28;20489;-74
2024/04/05 05:09:18;;;;;;;26.17;11.00;;;10.50;99.90;;;;;;5053025;28;20208;-76
2024/04/05 05:11:45;;;;;;;25.77;8.93;;;10.50;99.90;;;;;;5053957;28;20453;-75
2024/04/05 05:14:10;;;;;;;21.80;9.07;;;10.50;99.90;;;;;;5054034;28;20417;-77
2024/04/05 05:16:39;;;;;;;18.67;8.17;;;10.40;99.90;;;;;;5053916;28;20758;-77
2024/04/05 05:19:06;;;;;;;23.67;7.70;;;10.40;99.90;;;;;;5052933;28;20196;-75
2024/04/05 05:21:33;;;;;;;26.87;7.50;;;10.40;1.00;;;;;;5053900;28;20402;-77
2024/04/05 05:23:59;;;;;;;18.33;7.77;;;10.40;1.00;;;;;;5053778;28;20401;-77
2024/04/05 05:26:24;;;;;;;22.10;7.60;;;10.40;1.00;;;;;;5053771;28;20383;-75
2024/04/05 05:28:50;;;;;;;20.67;7.70;;;10.50;1.00;;;;;;5052748;28;20243;-77
2024/04/05 05:31:16;;;;;;;23.13;7.70;;;10.50;1.00;;;;;;5053548;28;20574;-77
2024/04/05 05:33:41;;;;;;;20.53;6.97;;;10.50;1.00;;;;;;5053631;28;20181;-76
2024/04/05 05:36:07;;;;;;;20.93;8.43;;;10.60;1.00;;;;;;5053275;28;20248;-77
2024/04/05 05:38:33;;;;;;;19.40;7.17;;;10.60;1.00;;;;;;5052432;28;20177;-77
2024/04/05 05:40:58;;;;;;;20.70;7.73;;;10.50;1.00;;;;;;5053454;28;20195;-77
2024/04/05 05:43:24;;;;;;;20.50;7.70;;;10.50;1.00;;;;;;5052547;28;20213;-75
2024/04/05 05:45:50;;;;;;;27.17;8.67;;;10.60;1.00;;;;;;5053368;28;20626;-75
2024/04/05 05:48:15;;;;;;;27.17;8.03;;;10.60;1.00;;;;;;5052351;28;20204;-76
2024/04/05 05:50:45;;;;;;;33.17;9.40;;;10.60;1.00;;;;;;5051970;28;20667;-76
2024/04/05 05:53:10;;;;;;;20.43;7.20;;;10.70;1.00;;;;;;5052022;28;20502;-72
2024/04/05 05:55:36;;;;;;;28.10;7.30;;;10.70;1.00;;;;;;5053466;28;20466;-76
2024/04/05 05:58:02;;;;;;;27.23;11.47;;;10.70;1.00;;;;;;5052329;28;20164;-75
2024/04/05 06:00:28;;;;;;;19.60;7.30;;;10.70;1.00;;;;;;5053195;28;20186;-72
2024/04/05 06:02:54;;;;;;;30.70;7.07;;;10.70;1.00;;;;;;5053631;28;20556;-73
2024/04/05 06:05:23;;;;;;;24.57;7.27;;;10.70;1.00;;;;;;5053450;28;20455;-72
2024/04/05 06:07:49;;;;;;;19.00;6.20;;;10.70;1.00;;;;;;5052500;28;20224;-75
2024/04/05 06:10:15;;;;;;;27.10;7.70;;;10.70;1.00;;;;;;5052834;28;20424;-72
2024/04/05 06:12:41;;;;;;;23.17;7.57;;;10.80;1.00;;;;;;5053201;28;20472;-72
2024/04/05 06:15:07;;;;;;;30.63;7.47;;;10.80;1.00;;;;;;5053463;28;20170;-76
2024/04/05 06:17:35;;;;;;;24.53;7.17;;;10.80;1.00;;;;;;5053252;28;20735;-72
2024/04/05 06:20:05;;;;;;;22.13;5.97;;;10.90;1.00;;;;;;5052303;28;20910;-75
2024/04/05 06:22:32;;;;;;;23.57;8.77;;;11.00;1.00;;;;;;5051917;28;20923;-72
2024/04/05 06:24:58;;;;;;;30.97;7.33;;;11.00;1.00;;;;;;5053208;28;20380;-72
2024/04/05 06:27:24;;;;;;;31.50;6.40;;;11.00;1.00;;;;;;5052100;28;20919;-71
2024/04/05 06:29:51;;;;;;;21.70;7.70;;;11.00;1.00;;;;;;5051946;28;20617;-75
2024/04/05 06:32:17;;;;;;;27.90;7.67;;;11.10;1.00;;;;;;5053010;28;20762;-75
2024/04/05 06:34:43;;;;;;;32.03;6.97;;;11.00;1.00;;;;;;5053010;28;20420;-75
2024/04/05 06:37:09;;;;;;;18.90;6.73;;;11.10;1.00;;;;;;5053088;28;20409;-72
2024/04/05 06:39:35;;;;;;;18.70;6.30;;;11.10;1.00;;;;;;5051880;28;20404;-71
2024/04/05 06:42:01;;;;;;;21.23;5.13;;;11.10;1.00;;;;;;5052909;28;20642;-74
2024/04/05 06:44:31;;;;;;;24.03;7.10;;;11.10;1.00;;;;;;5052770;28;20177;-75
2024/04/05 06:46:58;;;;;;;26.77;6.70;;;11.10;1.00;;;;;;5051540;28;20194;-76
2024/04/05 06:49:24;;;;;;;27.10;7.07;;;11.10;1.00;;;;;;5054718;28;20950;-76
2024/04/05 06:51:49;;;;;;;31.07;7.00;;;11.20;1.00;;;;;;5055643;28;20396;-76
2024/04/05 06:54:16;;;;;;;42.90;7.93;;;11.20;1.00;;;;;;5055571;28;20714;-76
2024/04/05 06:56:42;;;;;;;28.77;6.90;;;11.30;99.90;;;;;;5055129;28;20167;-75
2024/04/05 06:59:08;;;;;;;24.53;6.10;;;11.30;99.90;;;;;;5055826;28;20468;-75
2024/04/05 07:01:34;;;;;;;25.53;7.00;;;11.30;99.90;;;;;;5056351;28;20228;-75
2024/04/05 07:03:59;;;;;;;26.93;6.60;;;11.30;99.90;;;;;;5056528;28;20180;-75
2024/04/05 07:06:25;;;;;;;24.70;5.80;;;11.30;99.90;;;;;;5056465;28;20213;-75
2024/04/05 07:08:51;;;;;;;23.17;7.17;;;11.30;99.90;;;;;;5055529;28;20606;-76
2024/04/05 07:11:17;;;;;;;34.37;8.93;;;11.30;99.90;;;;;;5056244;28;20186;-75
2024/04/05 07:13:43;;;;;;;21.00;6.27;;;11.40;99.90;;;;;;5056395;28;20164;-75
2024/04/05 07:16:11;;;;;;;19.47;7.63;;;11.50;99.90;;;;;;5056327;28;20406;-75
2024/04/05 07:18:37;;;;;;;23.50;6.60;;;11.50;99.90;;;;;;5055489;28;20405;-76
2024/04/05 07:21:03;;;;;;;28.17;7.03;;;11.50;99.90;;;;;;5056016;28;20447;-75
2024/04/05 07:23:29;;;;;;;25.00;7.23;;;11.50;99.90;;;;;;5055009;28;20400;-76
2024/04/05 07:25:55;;;;;;;25.50;5.90;;;11.60;99.90;;;;;;5056177;28;20735;-77
2024/04/05 07:28:22;;;;;;;24.20;7.17;;;11.60;99.90;;;;;;5055369;28;20502;-76
2024/04/05 07:30:48;;;;;;;30.43;7.30;;;11.70;99.90;;;;;;5055772;28;20208;-76
2024/04/05 07:33:14;;;;;;;23.10;8.10;;;11.70;99.90;;;;;;5054666;28;20898;-77
2024/04/05 07:35:40;;;;;;;31.83;7.00;;;11.80;99.90;;;;;;5054619;28;20419;-75
2024/04/05 07:38:06;;;;;;;23.17;6.83;;;11.80;99.90;;;;;;5055121;28;20175;-76
2024/04/05 07:40:35;;;;;;;24.40;7.70;;;11.80;99.90;;;;;;5055732;28;20422;-76
2024/04/05 07:43:02;;;;;;;19.40;6.10;;;11.80;99.90;;;;;;5055617;28;20622;-76
2024/04/05 07:45:28;;;;;;;25.97;6.20;;;11.80;99.90;;;;;;5055842;28;20411;-75
2024/04/05 07:47:54;;;;;;;25.37;7.50;;;11.80;99.90;;;;;;5055122;28;20406;-76
2024/04/05 07:50:20;;;;;;;25.53;6.80;;;11.90;99.90;;;;;;5054104;28;20465;-76
2024/04/05 07:52:50;;;;;;;18.00;6.40;;;11.90;99.90;;;;;;5055403;28;20430;-75
2024/04/05 07:55:16;;;;;;;21.30;6.17;;;11.90;99.90;;;;;;5055401;28;20403;-76
2024/04/05 07:57:44;;;;;;;19.13;6.60;;;11.90;99.90;;;;;;5055259;28;20421;-76
2024/04/05 08:00:20;;;;;;;29.77;8.37;;;12.00;99.90;;;;;;5054081;28;20413;-75
2024/04/05 08:02:52;;;;;;;34.30;8.53;;;12.10;99.90;;;;;;5055348;28;20402;-76
2024/04/05 08:05:19;;;;;;;24.00;8.40;;;12.20;99.90;;;;;;5055113;28;20432;-76
2024/04/05 08:07:44;;;;;;;26.63;6.80;;;12.30;99.90;;;;;;5055346;28;20416;-76
2024/04/05 08:10:11;;;;;;;14.73;5.87;;;12.30;99.90;;;;;;5054583;28;20462;-75
2024/04/05 08:12:37;;;;;;;26.10;7.17;;;12.40;99.90;;;;;;5055210;28;20175;-75
2024/04/05 08:15:04;;;;;;;21.87;7.17;;;12.40;99.90;;;;;;5055172;28;20400;-76
2024/04/05 08:17:30;;;;;;;16.73;6.57;;;12.40;99.90;;;;;;5055111;28;20403;-77
2024/04/05 08:19:56;;;;;;;25.33;7.60;;;12.40;99.90;;;;;;5054145;28;20398;-75
2024/04/05 08:22:22;;;;;;;27.43;8.10;;;12.40;99.90;;;;;;5055084;28;20381;-76
2024/04/05 08:24:48;;;;;;;17.97;6.67;;;12.40;99.90;;;;;;5053745;28;20411;-76
2024/04/05 08:27:19;;;;;;;28.17;7.50;;;12.40;99.90;;;;;;5054872;28;20627;-76
2024/04/05 08:29:45;;;;;;;19.90;7.93;;;12.30;99.90;;;;;;5053812;28;20205;-76
2024/04/05 08:32:11;;;;;;;29.07;6.73;;;12.40;99.90;;;;;;5054904;28;20826;-76
2024/04/05 08:34:47;;;;;;;18.50;6.63;;;12.50;99.90;;;;;;5054689;28;20399;-75
2024/04/05 08:37:13;;;;;;;23.50;7.53;;;12.60;99.90;;;;;;5054546;28;20392;-76
2024/04/05 08:39:39;;;;;;;19.80;7.10;;;12.70;99.90;;;;;;5053723;28;20489;-76
2024/04/05 08:42:19;;;;;;;25.33;6.83;;;12.80;99.90;;;;;;5053607;28;20951;-76
2024/04/05 08:44:49;;;;;;;17.93;6.10;;;12.70;99.90;;;;;;5054456;28;20169;-75
2024/04/05 08:47:19;;;;;;;18.87;6.70;;;12.70;99.90;;;;;;5054484;28;20957;-76
2024/04/05 08:49:47;;;;;;;27.70;7.27;;;12.80;99.90;;;;;;5052303;28;20495;-77
2024/04/05 08:52:16;;;;;;;14.83;6.00;;;12.90;99.90;;;;;;5054332;28;20428;-76
2024/04/05 08:54:42;;;;;;;24.43;8.10;;;12.80;99.90;;;;;;5053232;28;20421;-76
2024/04/05 08:57:09;;;;;;;19.33;5.87;;;12.80;99.90;;;;;;5054229;28;20405;-75
2024/04/05 08:59:35;;;;;;;24.83;6.03;;;12.90;99.90;;;;;;5053325;28;20191;-75
2024/04/05 09:02:01;;;;;;;17.40;6.83;;;13.00;99.90;;;;;;5054126;28;20404;-76
2024/04/05 09:04:40;;;;;;;;;;;;;;;;;;;;;
2024/04/05 09:07:07;;;;;;;14.97;5.60;;;13.10;99.90;;;;;;5053871;28;20411;-75
2024/04/05 09:09:46;;;;;;;17.30;6.10;;;13.30;99.90;;;;;;5053105;28;20964;-76
2024/04/05 09:12:14;;;;;;;24.50;6.70;;;13.40;99.90;;;;;;5053612;28;20417;-75
2024/04/05 09:14:41;;;;;;;22.07;5.63;;;13.70;99.90;;;;;;5054025;28;20417;-76
2024/04/05 09:17:18;;;;;;;23.43;8.17;;;13.80;83.40;;;;;;5054048;28;20460;-76
2024/04/05 09:19:44;;;;;;;22.73;7.57;;;13.80;54.40;;;;;;5052635;28;20442;-75
2024/04/05 09:22:19;;;;;;;22.00;7.80;;;13.90;36.00;;;;;;5053809;28;20516;-75
2024/04/05 09:24:58;;;;;;;15.33;5.63;;;13.80;1.00;;;;;;5053912;28;20459;-76
2024/04/05 09:27:33;;;;;;;18.67;8.00;;;13.80;1.00;;;;;;5053876;28;20401;-75
2024/04/05 09:30:05;;;;;;;22.90;5.60;;;13.80;1.00;;;;;;5052717;28;20470;-76
2024/04/05 09:32:31;;;;;;;12.67;6.47;;;13.80;1.00;;;;;;5053775;28;20405;-76
2024/04/05 09:34:58;;;;;;;20.40;7.27;;;13.90;1.00;;;;;;5053658;28;20408;-76
2024/04/05 09:37:26;;;;;;;17.20;6.43;;;14.10;1.00;;;;;;5053690;28;20400;-76
2024/04/05 09:39:53;;;;;;;16.73;6.30;;;14.30;1.00;;;;;;5052807;28;20429;-77
2024/04/05 09:42:23;;;;;;;17.03;6.40;;;14.40;1.00;;;;;;5053569;28;20413;-76
2024/04/05 09:44:55;;;;;;;18.00;7.17;;;14.40;1.00;;;;;;5053492;28;20444;-76
2024/04/05 09:47:44;;;;;;;18.70;7.43;;;14.30;1.00;;;;;;5053409;28;20408;-76
2024/04/05 09:54:07;;;;;;;19.40;6.63;;;14.50;1.00;;;;;;5053355;28;20401;-76
2024/04/05 09:56:55;;;;;;;16.30;7.17;;;14.50;1.00;;;;;;5053167;28;20471;-76
2024/04/05 09:59:26;;;;;;;19.40;6.80;;;14.80;1.00;;;;;;5052663;28;20432;-76
2024/04/05 10:01:52;;;;;;;20.77;7.10;;;14.70;1.00;;;;;;5053185;28;20398;-77
2024/04/05 10:04:24;;;;;;;25.10;7.77;;;14.50;1.00;;;;;;5053171;28;20406;-78
2024/04/05 10:07:05;;;;;;;14.70;7.40;;;14.30;1.00;;;;;;5052025;28;20414;-77
2024/04/05 10:09:34;;;;;;;12.80;7.03;;;14.30;1.00;;;;;;5052621;28;20501;-76
2024/04/05 10:12:11;;;;;;;15.97;6.57;;;14.60;1.00;;;;;;5053331;28;20396;-76
2024/04/05 10:14:38;;;;;;;12.13;6.60;;;14.80;1.00;;;;;;5053214;28;20403;-76
2024/04/05 10:17:11;;;;;;;9.93;6.40;;;14.80;1.00;;;;;;5053340;28;20476;-76
2024/04/05 10:19:44;;;;;;;30.43;6.87;;;14.90;1.00;;;;;;5052503;28;20509;-76
2024/04/05 10:22:19;;;;;;;16.27;7.03;;;14.90;1.00;;;;;;5053156;28;20401;-77
2024/04/05 10:24:45;;;;;;;14.87;6.10;;;15.00;1.00;;;;;;5056938;28;20456;-77
2024/04/05 10:27:41;;;;;;;11.70;6.43;;;15.40;1.00;;;;;;5057227;28;20392;-76
2024/04/05 10:30:10;;;;;;;11.20;5.43;;;15.90;1.00;;;;;;5054996;28;20464;-75
2024/04/05 10:32:37;;;;;;;13.63;5.20;;;16.00;1.00;;;;;;5056860;28;20774;-76
2024/04/05 10:35:07;;;;;;;15.50;6.93;;;16.00;1.00;;;;;;5056806;28;20516;-77
2024/04/05 10:38:08;;;;;;;13.20;5.40;;;15.90;99.90;;;;;;5056836;28;20407;-76
2024/04/05 10:40:33;;;;;;;8.60;5.10;;;15.70;99.90;;;;;;5056764;28;20424;-75
2024/04/05 10:43:12;;;;;;;8.60;4.70;;;15.50;99.90;;;;;;5055847;28;20943;-76
2024/04/05 10:46:29;;;;;;;8.93;4.97;;;15.50;99.90;;;;;;5056596;28;20220;-76
2024/04/05 10:49:06;;;;;;;11.27;5.60;;;15.60;1.00;;;;;;5041283;28;20462;-76
2024/04/05 10:51:33;;;;;;;11.43;5.60;;;15.70;1.00;;;;;;5056321;28;20442;-76
2024/04/05 10:54:55;;;;;;;;;;;;;;;;;;;;;
2024/04/05 10:57:24;;;;;;;11.13;5.90;;;15.80;99.90;;;;;;5056825;28;20420;-76
2024/04/05 11:00:06;;;;;;;10.40;4.90;;;16.00;99.90;;;;;;5055551;28;20418;-76
2024/04/05 11:02:32;;;;;;;15.80;5.80;;;16.10;99.90;;;;;;5056204;28;20504;-76
2024/04/05 11:05:13;;;;;;;18.00;5.27;;;16.30;99.90;;;;;;5056343;28;20453;-77
2024/04/05 11:08:13;;;;;;;;;;;;;;;;;;;;;
2024/04/05 11:13:44;;;;;;;6.83;3.93;;;16.70;99.90;;;;;;5016102;28;20949;-76
2024/04/05 11:16:36;;;;;;;9.70;4.83;;;16.50;99.90;;;;;;5019911;28;20424;-75
2024/04/05 11:19:05;;;;;;;14.17;5.13;;;16.30;99.90;;;;;;5047342;28;20240;-76
2024/04/05 11:21:34;;;;;;;9.30;3.83;;;16.20;99.90;;;;;;5056309;28;20887;-76
2024/04/05 11:24:00;;;;;;;6.00;3.70;;;16.30;99.90;;;;;;5056107;28;20425;-75
2024/04/05 11:26:34;;;;;;;11.90;4.33;;;16.30;99.90;;;;;;5056093;28;20411;-76
2024/04/05 11:29:01;;;;;;;9.27;4.33;;;16.30;99.90;;;;;;5054850;28;20201;-76
2024/04/05 11:31:27;;;;;;;9.90;3.67;;;16.40;99.90;;;;;;5055840;28;20422;-76
2024/04/05 11:34:37;;;;;;;9.50;3.23;;;16.40;99.90;;;;;;5055647;28;20445;-77
2024/04/05 11:37:24;;;;;;;10.70;4.27;;;16.40;99.90;;;;;;5055588;28;20404;-76
2024/04/05 11:40:06;;;;;;;10.13;3.33;;;16.40;99.90;;;;;;5054201;28;20455;-76
2024/04/05 11:42:32;;;;;;;8.70;3.87;;;16.30;99.90;;;;;;5055636;28;20951;-76
2024/04/05 11:44:58;;;;;;;11.77;3.83;;;16.30;99.90;;;;;;5054267;28;20475;-77
2024/04/05 11:47:24;;;;;;;14.80;3.67;;;16.30;99.90;;;;;;5055741;28;20417;-76
2024/04/05 11:50:37;;;;;;;5.93;3.53;;;16.30;99.90;;;;;;5054565;28;20207;-76
2024/04/05 11:53:28;;;;;;;11.30;4.33;;;16.30;99.90;;;;;;5055368;28;20404;-77
2024/04/05 11:55:55;;;;;;;13.93;3.97;;;16.30;99.90;;;;;;5055429;28;20914;-76
2024/04/05 11:58:36;;;;;;;15.33;5.00;;;16.30;99.90;;;;;;5054477;28;20397;-76
2024/04/05 12:01:30;;;;;;;9.53;3.70;;;16.30;99.90;;;;;;5053889;28;20587;-76
2024/04/05 12:04:40;;;;;;;7.47;3.93;;;16.20;99.90;;;;;;5055214;28;20490;-76
2024/04/05 12:07:53;;;;;;;8.47;4.10;;;16.30;99.90;;;;;;5054942;28;20402;-77
2024/04/05 12:10:19;;;;;;;13.73;3.67;;;16.40;99.90;;;;;;5054937;28;20460;-77
2024/04/05 12:12:55;;;;;;;12.20;4.33;;;16.50;99.90;;;;;;5055202;28;20416;-76
2024/04/05 12:15:37;;;;;;;;;;;;;;;;;;;;;
2024/04/05 12:18:09;;;;;;;9.27;2.90;;;16.50;99.90;;;;;;5053968;28;20410;-76
2024/04/05 12:20:35;;;;;;;10.23;3.70;;;16.40;99.90;;;;;;5053583;28;20468;-76
2024/04/05 12:23:01;;;;;;;9.77;3.37;;;16.40;99.90;;;;;;5055094;28;20413;-75
2024/04/05 12:25:27;;;;;;;8.80;3.43;;;16.50;99.90;;;;;;5054916;28;20498;-76
2024/04/05 12:28:19;;;;;;;13.03;3.93;;;16.50;99.90;;;;;;5052789;28;20652;-76
2024/04/05 12:33:47;;;;;;;7.97;3.20;;;16.60;99.90;;;;;;5054778;28;20512;-76
2024/04/05 12:36:18;;;;;;;9.90;3.90;;;16.50;99.90;;;;;;5053744;28;20409;-76
2024/04/05 12:38:47;;;;;;;8.50;3.40;;;16.40;99.90;;;;;;5053758;28;20409;-76
2024/04/05 12:41:14;;;;;;;10.30;3.77;;;16.20;99.90;;;;;;5054529;28;20946;-77
2024/04/05 12:43:46;;;;;;;5.83;3.63;;;16.10;99.90;;;;;;5054500;28;20500;-76
2024/04/05 12:46:15;;;;;;;7.27;4.10;;;16.00;99.90;;;;;;5054451;28;20454;-75
2024/04/05 12:48:41;;;;;;;7.10;4.40;;;15.90;99.90;;;;;;5053351;28;20445;-77
2024/04/05 12:51:10;;;;;;;7.80;3.60;;;15.70;99.90;;;;;;5054402;28;20435;-77
2024/04/05 12:53:41;;;;;;;8.53;3.80;;;15.50;99.90;;;;;;5054474;28;20470;-76
2024/04/05 12:56:07;;;;;;;9.20;3.97;;;15.40;1.00;;;;;;5054441;28;20401;-77
2024/04/05 12:58:48;;;;;;;10.93;4.23;;;15.40;1.00;;;;;;5053431;28;20409;-74
2024/04/05 13:01:14;;;;;;;10.97;4.47;;;15.30;1.00;;;;;;5054131;28;20437;-76
2024/04/05 13:03:49;;;;;;;14.40;4.30;;;15.30;1.00;;;;;;5054079;28;20408;-77
2024/04/05 13:06:17;;;;;;;9.80;3.80;;;15.20;1.00;;;;;;5054038;28;20513;-76
2024/04/05 13:08:43;;;;;;;12.30;5.20;;;15.10;1.00;;;;;;5053034;28;20945;-76